createdAt,value
2023-01-27T00:01:10.860Z,12.87
2023-01-27T00:03:38.230Z,12.60
2023-01-27T00:06:06.560Z,12.60
2023-01-27T00:08:34.309Z,12.70
2023-01-27T00:11:20.820Z,12.20
2023-01-27T00:14:12.185Z,13.70
2023-01-27T00:16:40.851Z,12.70
2023-01-27T00:19:08.375Z,12.50
2023-01-27T00:21:54.232Z,12.43
2023-01-27T00:24:36.923Z,12.47
2023-01-27T00:27:04.862Z,11.90
2023-01-27T00:29:32.150Z,12.10
2023-01-27T00:32:19.496Z,11.43
2023-01-27T00:34:46.844Z,11.50
2023-01-27T00:37:14.130Z,11.90
2023-01-27T00:39:41.602Z,12.37
2023-01-27T00:42:10.905Z,13.70
2023-01-27T00:44:38.173Z,12.60
2023-01-27T00:47:05.447Z,13.00
2023-01-27T00:49:32.699Z,11.67
2023-01-27T00:52:01.692Z,12.30
2023-01-27T00:54:29.026Z,12.47
2023-01-27T00:56:56.312Z,12.33
2023-01-27T00:59:23.677Z,11.97
2023-01-27T01:01:50.989Z,12.73
2023-01-27T01:04:18.265Z,12.73
2023-01-27T01:06:46.860Z,13.20
2023-01-27T01:09:14.143Z,13.20
2023-01-27T01:11:41.592Z,12.40
2023-01-27T01:14:08.810Z,12.80
2023-01-27T01:16:36.194Z,13.00
2023-01-27T01:19:03.539Z,13.13
2023-01-27T01:21:30.896Z,13.43
2023-01-27T01:23:58.469Z,13.43
2023-01-27T01:26:25.746Z,14.40
2023-01-27T01:28:54.763Z,12.60
2023-01-27T01:31:22.022Z,12.83
2023-01-27T01:33:49.629Z,12.90
2023-01-27T01:36:18.255Z,12.50
2023-01-27T01:38:45.809Z,11.57
2023-01-27T01:41:15.819Z,13.20
2023-01-27T01:43:43.115Z,12.43
2023-01-27T01:46:13.316Z,13.03
2023-01-27T01:48:42.446Z,12.30
2023-01-27T01:51:24.037Z,12.23
2023-01-27T01:53:58.167Z,11.70
2023-01-27T01:56:28.928Z,11.97
2023-01-27T01:58:57.891Z,11.00
2023-01-27T02:01:25.165Z,11.53
2023-01-27T02:03:55.985Z,10.87
2023-01-27T02:06:23.563Z,10.87
2023-01-27T02:08:52.260Z,10.37
2023-01-27T02:11:19.751Z,10.30
2023-01-27T02:13:47.109Z,10.33
2023-01-27T02:16:14.551Z,10.70
2023-01-27T02:18:42.483Z,9.83
2023-01-27T02:21:09.808Z,11.20
2023-01-27T02:23:43.113Z,11.43
2023-01-27T02:26:16.653Z,11.20
2023-01-27T02:28:43.988Z,10.13
2023-01-27T02:31:11.542Z,11.57
2023-01-27T02:33:38.872Z,10.83
2023-01-27T02:36:17.011Z,10.97
2023-01-27T02:38:48.881Z,11.90
2023-01-27T02:41:22.534Z,11.73
2023-01-27T02:43:50.522Z,12.00
2023-01-27T02:46:18.779Z,12.03
2023-01-27T02:48:46.241Z,12.17
2023-01-27T02:51:18.667Z,13.07
2023-01-27T02:53:46.170Z,12.37
2023-01-27T02:56:13.396Z,12.57
2023-01-27T02:58:40.699Z,11.13
2023-01-27T03:01:13.018Z,12.20
2023-01-27T03:03:47.673Z,12.27
2023-01-27T03:06:19.756Z,12.97
2023-01-27T03:08:47.047Z,12.67
2023-01-27T03:11:35.885Z,12.17
2023-01-27T03:14:04.175Z,11.37
2023-01-27T03:16:49.912Z,12.10
2023-01-27T03:19:17.656Z,12.07
2023-01-27T03:21:45.388Z,11.60
2023-01-27T03:24:13.068Z,11.73
2023-01-27T03:26:40.887Z,12.70
2023-01-27T03:29:28.804Z,12.20
2023-01-27T03:31:56.796Z,12.73
2023-01-27T03:34:24.191Z,12.73
2023-01-27T03:37:14.789Z,12.47
2023-01-27T03:40:02.507Z,12.63
2023-01-27T03:42:49.010Z,13.13
2023-01-27T03:45:35.046Z,13.00
2023-01-27T03:48:02.314Z,12.23
2023-01-27T03:50:38.081Z,12.50
2023-01-27T03:53:06.057Z,11.60
2023-01-27T03:55:34.180Z,11.60
2023-01-27T03:58:20.156Z,11.20
2023-01-27T04:00:52.184Z,12.50
2023-01-27T04:03:38.435Z,11.73
2023-01-27T04:06:28.548Z,11.57
2023-01-27T04:08:56.385Z,12.13
2023-01-27T04:11:42.699Z,11.07
2023-01-27T04:14:10.581Z,10.80
2023-01-27T04:16:37.909Z,10.37
2023-01-27T04:19:06.155Z,10.83
2023-01-27T04:21:33.872Z,10.40
2023-01-27T04:24:01.360Z,10.60
2023-01-27T04:26:33.233Z,10.20
2023-01-27T04:29:04.085Z,11.17
2023-01-27T04:31:32.726Z,10.50
2023-01-27T04:34:00.366Z,10.97
2023-01-27T04:36:27.721Z,10.43
2023-01-27T04:38:55.015Z,10.47
2023-01-27T04:41:22.472Z,9.90
2023-01-27T04:43:49.657Z,10.37
2023-01-27T04:46:17.150Z,10.27
2023-01-27T04:48:44.410Z,10.70
2023-01-27T04:51:11.854Z,9.63
2023-01-27T04:53:39.165Z,10.33
2023-01-27T04:56:07.988Z,10.77
2023-01-27T04:58:35.225Z,9.97
2023-01-27T05:01:02.544Z,10.63
2023-01-27T05:03:30.134Z,9.83
2023-01-27T05:05:57.300Z,10.33
2023-01-27T05:08:24.500Z,10.20
2023-01-27T05:10:52.897Z,10.10
2023-01-27T05:13:20.180Z,10.17
2023-01-27T05:15:48.484Z,11.10
2023-01-27T05:18:15.987Z,10.00
2023-01-27T05:20:43.165Z,10.83
2023-01-27T05:23:29.215Z,10.37
2023-01-27T05:25:56.476Z,10.67
2023-01-27T05:28:23.859Z,11.20
2023-01-27T05:30:51.161Z,10.93
2023-01-27T05:33:18.458Z,11.60
2023-01-27T05:35:45.745Z,10.67
2023-01-27T05:38:13.027Z,11.00
2023-01-27T05:40:40.248Z,10.27
2023-01-27T05:43:07.601Z,27.20
2023-01-27T05:45:34.809Z,13.53
2023-01-27T05:48:02.092Z,31.70
2023-01-27T05:50:29.246Z,9.97
2023-01-27T05:52:56.487Z,8.87
2023-01-27T05:55:23.781Z,9.03
2023-01-27T05:57:51.344Z,9.17
2023-01-27T06:00:18.854Z,9.17
2023-01-27T06:02:46.180Z,9.43
2023-01-27T06:05:13.793Z,9.33
2023-01-27T06:07:41.368Z,8.10
2023-01-27T06:10:09.451Z,9.60
2023-01-27T06:12:36.838Z,9.53
2023-01-27T06:15:04.153Z,9.93
2023-01-27T06:17:31.617Z,8.67
2023-01-27T06:19:58.813Z,9.13
2023-01-27T06:22:26.079Z,9.90
2023-01-27T06:24:53.292Z,9.77
2023-01-27T06:27:20.557Z,9.43
2023-01-27T06:29:47.803Z,16.33
2023-01-27T06:32:15.139Z,57.27
2023-01-27T06:34:42.570Z,32.80
2023-01-27T06:37:10.751Z,11.10
2023-01-27T06:39:37.984Z,10.53
2023-01-27T06:42:07.439Z,9.57
2023-01-27T06:44:34.699Z,9.80
2023-01-27T06:47:01.920Z,10.57
2023-01-27T06:49:48.011Z,11.60
2023-01-27T06:52:15.240Z,10.83
2023-01-27T06:54:42.966Z,10.30
2023-01-27T06:57:10.859Z,10.53
2023-01-27T06:59:38.244Z,11.37
2023-01-27T07:02:05.449Z,10.20
2023-01-27T07:04:33.016Z,10.23
2023-01-27T07:07:00.179Z,10.23
2023-01-27T07:09:27.404Z,10.07
2023-01-27T07:11:54.632Z,8.93
2023-01-27T07:14:21.867Z,9.47
2023-01-27T07:16:49.061Z,8.57
2023-01-27T07:19:16.826Z,9.23
2023-01-27T07:21:53.968Z,9.40
2023-01-27T07:24:21.443Z,8.90
2023-01-27T07:26:48.697Z,8.80
2023-01-27T07:29:15.977Z,9.33
2023-01-27T07:31:44.969Z,9.77
2023-01-27T07:34:12.324Z,8.87
2023-01-27T07:36:39.793Z,9.30
2023-01-27T07:39:07.035Z,9.23
2023-01-27T07:41:34.739Z,10.07
2023-01-27T07:44:02.799Z,10.03
2023-01-27T07:46:30.082Z,10.57
2023-01-27T07:48:57.436Z,10.03
2023-01-27T07:51:25.039Z,9.97
2023-01-27T07:53:52.282Z,11.53
2023-01-27T07:56:19.555Z,9.77
2023-01-27T07:58:46.800Z,10.30
2023-01-27T08:01:14.568Z,10.37
2023-01-27T08:03:42.225Z,10.63
2023-01-27T08:06:10.721Z,10.50
2023-01-27T08:08:38.296Z,10.73
2023-01-27T08:11:10.252Z,10.97
2023-01-27T08:13:37.778Z,10.73
2023-01-27T08:16:06.390Z,10.97
2023-01-27T08:18:33.899Z,11.60
2023-01-27T08:21:01.721Z,10.93
2023-01-27T08:23:29.230Z,11.17
2023-01-27T08:26:00.292Z,10.90
2023-01-27T08:28:28.688Z,11.07
2023-01-27T08:30:55.968Z,11.73
2023-01-27T08:33:24.385Z,10.83
2023-01-27T08:35:51.927Z,10.03
2023-01-27T08:38:19.816Z,10.33
2023-01-27T08:40:47.728Z,10.97
2023-01-27T08:43:19.716Z,10.83
2023-01-27T08:45:47.221Z,10.70
2023-01-27T08:48:14.410Z,10.63
2023-01-27T08:50:41.734Z,10.07
2023-01-27T08:53:09.295Z,9.70
2023-01-27T08:55:36.615Z,10.70
2023-01-27T08:58:04.011Z,9.67
2023-01-27T09:00:31.569Z,10.23
2023-01-27T09:03:02.176Z,10.10
2023-01-27T09:05:29.576Z,8.97
2023-01-27T09:07:56.924Z,9.63
2023-01-27T09:10:24.492Z,9.87
2023-01-27T09:12:51.874Z,9.47
2023-01-27T09:15:19.331Z,9.70
2023-01-27T09:17:47.202Z,8.90
2023-01-27T09:20:15.183Z,10.57
2023-01-27T09:22:43.243Z,9.73
2023-01-27T09:25:15.463Z,9.97
2023-01-27T09:27:43.188Z,10.13
2023-01-27T09:30:14.354Z,9.83
2023-01-27T09:32:42.592Z,10.13
2023-01-27T09:35:10.288Z,10.10
2023-01-27T09:37:48.188Z,10.27
2023-01-27T09:40:31.060Z,10.03
2023-01-27T09:43:18.053Z,10.73
2023-01-27T09:45:55.279Z,9.83
2023-01-27T09:48:22.632Z,9.33
2023-01-27T09:50:56.268Z,9.70
2023-01-27T09:53:50.268Z,9.13
2023-01-27T09:56:31.113Z,9.40
2023-01-27T09:59:16.169Z,9.83
2023-01-27T10:01:54.920Z,9.43
2023-01-27T10:04:41.060Z,9.60
2023-01-27T10:07:08.441Z,9.87
2023-01-27T10:09:51.651Z,10.20
2023-01-27T10:12:24.974Z,10.30
2023-01-27T10:15:11.012Z,11.27
2023-01-27T10:17:44.810Z,11.27
2023-01-27T10:20:12.525Z,10.80
2023-01-27T10:22:47.720Z,10.50
2023-01-27T10:25:15.016Z,11.33
2023-01-27T10:27:46.074Z,11.47
2023-01-27T10:30:21.841Z,11.23
2023-01-27T10:33:07.704Z,12.43
2023-01-27T10:36:04.802Z,10.93
2023-01-27T10:38:32.095Z,11.70
2023-01-27T10:41:05.369Z,11.60
2023-01-27T10:43:36.863Z,11.00
2023-01-27T10:46:04.217Z,12.03
2023-01-27T10:48:37.391Z,11.47
2023-01-27T10:51:09.729Z,11.67
2023-01-27T10:53:52.385Z,11.60
2023-01-27T10:56:34.144Z,13.30
2023-01-27T10:59:04.428Z,12.83
2023-01-27T11:01:34.180Z,12.53
2023-01-27T11:04:04.712Z,12.27
2023-01-27T11:06:35.862Z,12.63
2023-01-27T11:09:08.244Z,13.30
2023-01-27T11:11:45.578Z,12.00
2023-01-27T11:14:32.564Z,10.87
2023-01-27T11:17:15.316Z,12.47
2023-01-27T11:19:51.308Z,12.73
2023-01-27T11:22:23.569Z,11.67
2023-01-27T11:25:14.764Z,12.57
2023-01-27T11:27:47.933Z,12.13
2023-01-27T11:30:25.387Z,12.50
2023-01-27T11:33:11.748Z,12.27
2023-01-27T11:35:39.111Z,12.57
2023-01-27T11:38:15.262Z,12.80
2023-01-27T11:41:02.298Z,13.53
2023-01-27T11:43:29.993Z,12.93
2023-01-27T11:46:02.403Z,13.30
2023-01-27T11:48:36.885Z,14.47
2023-01-27T11:51:04.724Z,13.40
2023-01-27T11:53:39.797Z,13.33
2023-01-27T11:56:10.979Z,13.00
2023-01-27T11:58:38.292Z,12.93
2023-01-27T12:01:17.969Z,13.87
2023-01-27T12:03:48.221Z,13.60
2023-01-27T12:06:17.319Z,14.13
2023-01-27T12:08:45.992Z,14.77
2023-01-27T12:11:26.970Z,14.20
2023-01-27T12:13:55.528Z,14.93
2023-01-27T12:16:25.295Z,13.70
2023-01-27T12:18:55.044Z,14.73
2023-01-27T12:21:24.127Z,14.87
2023-01-27T12:23:54.422Z,14.73
2023-01-27T12:26:30.679Z,14.00
2023-01-27T12:29:00.533Z,15.27
2023-01-27T12:31:29.438Z,13.27
2023-01-27T12:33:59.935Z,13.50
2023-01-27T12:36:29.995Z,14.67
2023-01-27T12:39:00.570Z,13.63
2023-01-27T12:41:28.902Z,14.87
2023-01-27T12:44:08.741Z,13.53
2023-01-27T12:46:36.063Z,13.93
2023-01-27T12:49:15.663Z,13.27
2023-01-27T12:51:48.379Z,14.20
2023-01-27T12:54:17.761Z,13.80
2023-01-27T12:56:45.099Z,13.47
2023-01-27T12:59:17.336Z,14.70
2023-01-27T13:01:47.157Z,14.43
2023-01-27T13:04:19.319Z,14.60
2023-01-27T13:06:49.081Z,13.47
2023-01-27T13:09:31.913Z,14.53
2023-01-27T13:12:02.098Z,13.87
2023-01-27T13:14:30.623Z,14.33
2023-01-27T13:16:59.127Z,13.43
2023-01-27T13:19:43.923Z,13.33
2023-01-27T13:22:17.435Z,12.47
2023-01-27T13:24:45.102Z,12.67
2023-01-27T13:27:14.800Z,13.13
2023-01-27T13:29:43.691Z,13.53
2023-01-27T13:32:21.339Z,12.20
2023-01-27T13:34:53.010Z,11.63
2023-01-27T13:37:43.559Z,11.53
2023-01-27T13:40:20.144Z,11.47
2023-01-27T13:42:50.240Z,12.07
2023-01-27T13:45:20.795Z,11.30
2023-01-27T13:47:56.789Z,12.60
2023-01-27T13:50:36.064Z,11.80
2023-01-27T13:53:04.321Z,11.87
2023-01-27T13:55:43.970Z,12.30
2023-01-27T13:58:21.295Z,12.00
2023-01-27T14:00:58.924Z,12.13
2023-01-27T14:03:34.685Z,11.77
2023-01-27T14:06:08.442Z,11.90
2023-01-27T14:08:50.573Z,12.37
2023-01-27T14:11:29.392Z,11.80
2023-01-27T14:14:02.364Z,11.80
2023-01-27T14:16:29.726Z,11.43
2023-01-27T14:19:03.472Z,11.03
2023-01-27T14:21:45.661Z,11.30
2023-01-27T14:24:20.566Z,11.07
2023-01-27T14:26:51.046Z,10.53
2023-01-27T14:29:30.614Z,11.53
2023-01-27T14:32:15.797Z,10.83
2023-01-27T14:34:46.090Z,10.07
2023-01-27T14:37:32.383Z,10.00
2023-01-27T14:40:18.586Z,10.57
2023-01-27T14:42:45.791Z,10.40
2023-01-27T14:45:19.394Z,9.87
2023-01-27T14:47:53.223Z,9.97
2023-01-27T14:50:26.630Z,10.67
2023-01-27T14:52:59.836Z,10.67
2023-01-27T14:55:27.061Z,9.93
2023-01-27T14:58:06.087Z,10.63
2023-01-27T15:00:42.938Z,10.60
2023-01-27T15:03:10.244Z,9.60
2023-01-27T15:05:45.319Z,10.30
2023-01-27T15:08:17.789Z,10.43
2023-01-27T15:10:56.868Z,10.60
2023-01-27T15:13:24.109Z,10.40
2023-01-27T15:16:10.340Z,10.43
2023-01-27T15:18:37.600Z,10.23
2023-01-27T15:21:30.369Z,11.10
2023-01-27T15:23:57.678Z,11.27
2023-01-27T15:26:26.793Z,10.87
2023-01-27T15:28:55.752Z,11.87
2023-01-27T15:31:25.279Z,11.07
2023-01-27T15:34:01.635Z,10.60
2023-01-27T15:36:32.130Z,10.10
2023-01-27T15:38:59.855Z,11.90
2023-01-27T15:41:27.219Z,10.60
2023-01-27T15:44:16.018Z,11.77
2023-01-27T15:46:44.340Z,11.00
2023-01-27T15:49:17.489Z,11.03
2023-01-27T15:51:54.377Z,10.97
2023-01-27T15:54:29.816Z,11.77
2023-01-27T15:56:57.582Z,11.03
2023-01-27T15:59:26.916Z,11.13
2023-01-27T16:02:14.515Z,11.33
2023-01-27T16:04:42.289Z,10.87
2023-01-27T16:07:18.854Z,11.70
2023-01-27T16:09:48.781Z,11.20
2023-01-27T16:12:28.366Z,11.43
2023-01-27T16:15:01.981Z,10.33
2023-01-27T16:17:32.838Z,10.70
2023-01-27T16:20:15.596Z,11.20
2023-01-27T16:22:44.663Z,10.30
2023-01-27T16:25:27.855Z,10.80
2023-01-27T16:28:04.632Z,11.23
2023-01-27T16:30:55.251Z,11.23
2023-01-27T16:33:27.472Z,11.40
2023-01-27T16:35:57.245Z,11.27
2023-01-27T16:38:29.031Z,11.27
2023-01-27T16:41:04.224Z,11.13
2023-01-27T16:43:34.081Z,9.83
2023-01-27T16:46:20.132Z,14.77
2023-01-27T16:48:48.092Z,14.53
2023-01-27T16:51:17.712Z,12.57
2023-01-27T16:53:47.350Z,9.63
2023-01-27T16:56:22.593Z,9.00
2023-01-27T16:58:51.245Z,8.33
2023-01-27T17:01:20.989Z,8.13
2023-01-27T17:03:48.794Z,8.13
2023-01-27T17:06:17.737Z,8.30
2023-01-27T17:08:48.650Z,9.17
2023-01-27T17:11:15.936Z,18.47
2023-01-27T17:13:51.500Z,10.60
2023-01-27T17:16:24.771Z,10.47
2023-01-27T17:18:53.266Z,10.10
2023-01-27T17:21:29.119Z,10.73
2023-01-27T17:24:02.194Z,10.07
2023-01-27T17:26:30.797Z,10.40
2023-01-27T17:28:59.073Z,10.43
2023-01-27T17:31:26.999Z,11.23
2023-01-27T17:33:59.891Z,10.40
2023-01-27T17:36:27.703Z,10.70
2023-01-27T17:38:57.264Z,11.83
2023-01-27T17:41:25.931Z,11.27
2023-01-27T17:43:53.763Z,10.77
2023-01-27T17:46:22.679Z,11.67
2023-01-27T17:49:07.123Z,11.27
2023-01-27T17:51:37.723Z,11.43
2023-01-27T17:54:08.612Z,11.33
2023-01-27T17:56:35.916Z,11.00
2023-01-27T17:59:07.298Z,12.00
2023-01-27T18:01:35.627Z,12.73
2023-01-27T18:04:03.693Z,11.80
2023-01-27T18:06:30.966Z,12.17
2023-01-27T18:09:01.837Z,13.13
2023-01-27T18:11:31.408Z,12.27
2023-01-27T18:14:08.056Z,13.07
2023-01-27T18:16:35.735Z,12.27
2023-01-27T18:19:19.192Z,12.53
2023-01-27T18:21:46.709Z,13.03
2023-01-27T18:24:21.657Z,12.27
2023-01-27T18:26:49.304Z,12.80
2023-01-27T18:29:25.361Z,13.40
2023-01-27T18:31:53.248Z,13.27
2023-01-27T18:34:26.663Z,14.23
2023-01-27T18:36:58.636Z,13.90
2023-01-27T18:39:42.047Z,13.53
2023-01-27T18:42:17.322Z,14.13
2023-01-27T18:44:44.929Z,14.93
2023-01-27T18:47:18.320Z,14.50
2023-01-27T18:49:51.798Z,15.37
2023-01-27T18:55:22.287Z,14.93
2023-01-27T18:57:50.963Z,20.70
2023-01-27T19:00:19.760Z,15.97
2023-01-27T19:02:48.432Z,15.77
2023-01-27T19:05:23.279Z,15.50
2023-01-27T19:07:50.774Z,14.87
2023-01-27T19:10:25.093Z,15.00
2023-01-27T19:12:58.202Z,15.27
2023-01-27T19:15:27.739Z,16.73
2023-01-27T19:17:56.115Z,15.80
2023-01-27T19:20:24.847Z,15.03
2023-01-27T19:22:53.460Z,16.47
2023-01-27T19:25:21.665Z,16.00
2023-01-27T19:27:51.011Z,14.77
2023-01-27T19:30:25.211Z,16.17
2023-01-27T19:32:53.733Z,16.03
2023-01-27T19:35:21.695Z,15.13
2023-01-27T19:37:49.600Z,16.10
2023-01-27T19:40:18.008Z,15.07
2023-01-27T19:42:45.253Z,14.70
2023-01-27T19:45:14.477Z,15.30
2023-01-27T19:47:44.835Z,15.17
2023-01-27T19:50:32.399Z,14.67
2023-01-27T19:52:59.743Z,16.77
2023-01-27T19:55:27.060Z,17.40
2023-01-27T19:57:54.753Z,15.77
2023-01-27T20:00:23.988Z,17.20
2023-01-27T20:02:51.332Z,16.37
2023-01-27T20:05:19.102Z,17.33
2023-01-27T20:07:46.926Z,18.77
2023-01-27T20:10:18.149Z,20.20
2023-01-27T20:12:46.293Z,16.53
2023-01-27T20:15:18.390Z,20.47
2023-01-27T20:17:45.940Z,19.70
2023-01-27T20:20:14.117Z,19.33
2023-01-27T20:22:41.514Z,18.13
2023-01-27T20:25:12.454Z,17.97
2023-01-27T20:27:40.486Z,19.37
2023-01-27T20:30:07.993Z,19.70
2023-01-27T20:32:35.253Z,22.83
2023-01-27T20:35:02.512Z,20.40
2023-01-27T20:37:30.180Z,25.37
2023-01-27T20:39:57.595Z,28.93
2023-01-27T20:42:25.198Z,23.13
2023-01-27T20:44:52.846Z,20.10
2023-01-27T20:47:20.293Z,20.73
2023-01-27T20:49:49.100Z,21.37
2023-01-27T20:52:16.545Z,21.27
2023-01-27T20:54:43.952Z,20.27
2023-01-27T20:57:11.226Z,21.13
2023-01-27T20:59:38.484Z,19.53
2023-01-27T21:02:05.791Z,18.93
2023-01-27T21:04:33.061Z,21.10
2023-01-27T21:07:00.392Z,19.97
2023-01-27T21:09:27.737Z,20.50
2023-01-27T21:11:55.021Z,20.63
2023-01-27T21:14:22.329Z,18.60
2023-01-27T21:16:49.832Z,19.87
2023-01-27T21:19:17.356Z,20.13
2023-01-27T21:21:46.494Z,20.40
2023-01-27T21:24:13.966Z,23.57
2023-01-27T21:26:42.174Z,19.00
2023-01-27T21:29:11.309Z,19.63
2023-01-27T21:31:40.284Z,18.60
2023-01-27T21:34:10.309Z,18.60
2023-01-27T21:36:37.965Z,18.80
2023-01-27T21:39:05.739Z,17.33
2023-01-27T21:41:52.273Z,16.70
2023-01-27T21:44:42.987Z,17.77
2023-01-27T21:47:11.513Z,17.27
2023-01-27T21:49:58.568Z,17.53
2023-01-27T21:52:27.083Z,15.93
2023-01-27T21:57:39.185Z,16.03
2023-01-27T22:00:07.734Z,16.73
2023-01-27T22:02:42.147Z,16.40
2023-01-27T22:05:13.341Z,15.20
2023-01-27T22:07:41.700Z,16.20
2023-01-27T22:10:12.097Z,17.43
2023-01-27T22:12:39.444Z,15.30
2023-01-27T22:15:07.107Z,15.90
2023-01-27T22:17:35.761Z,16.30
2023-01-27T22:20:03.463Z,16.73
2023-01-27T22:22:30.762Z,16.60
2023-01-27T22:24:58.077Z,16.27
2023-01-27T22:27:25.509Z,16.90
2023-01-27T22:29:52.772Z,15.57
2023-01-27T22:32:20.247Z,16.33
2023-01-27T22:34:47.927Z,15.83
2023-01-27T22:37:15.375Z,15.70
2023-01-27T22:39:42.743Z,16.43
2023-01-27T22:42:10.262Z,15.90
2023-01-27T22:44:37.497Z,16.57
2023-01-27T22:47:05.711Z,16.20
2023-01-27T22:49:32.988Z,16.53
2023-01-27T22:52:00.621Z,16.33
2023-01-27T22:54:27.867Z,16.43
2023-01-27T22:56:55.107Z,17.23
2023-01-27T22:59:22.379Z,17.37
2023-01-27T23:01:49.635Z,16.00
2023-01-27T23:04:17.094Z,17.83
2023-01-27T23:06:44.533Z,16.47
2023-01-27T23:09:12.527Z,16.53
2023-01-27T23:11:39.737Z,16.17
2023-01-27T23:14:07.128Z,16.67
2023-01-27T23:16:34.665Z,15.53
2023-01-27T23:19:01.979Z,15.97
2023-01-27T23:21:31.417Z,15.03
2023-01-27T23:23:58.844Z,15.10
2023-01-27T23:26:26.872Z,14.70
2023-01-27T23:28:54.391Z,15.50
2023-01-27T23:31:21.662Z,15.53
2023-01-27T23:33:49.208Z,14.87
2023-01-27T23:36:16.427Z,15.30
2023-01-27T23:38:43.729Z,14.87
2023-01-27T23:41:18.181Z,15.50
2023-01-27T23:43:46.272Z,15.47
2023-01-27T23:46:13.548Z,15.63
2023-01-27T23:48:40.790Z,15.03
2023-01-27T23:51:09.451Z,14.57
2023-01-27T23:53:37.033Z,14.27
2023-01-27T23:56:04.668Z,11.97
2023-01-27T23:58:32.110Z,12.27
